createdAt,value
2022-10-28T00:01:02.905Z,9.74
2022-10-28T00:04:11.282Z,9.71
2022-10-28T00:07:16.947Z,9.67
2022-10-28T00:10:22.412Z,9.66
2022-10-28T00:13:27.584Z,9.66
2022-10-28T00:16:33.946Z,9.65
2022-10-28T00:19:39.219Z,9.63
2022-10-28T00:22:49.253Z,9.63
2022-10-28T00:25:56.647Z,9.63
2022-10-28T00:29:04.244Z,9.64
2022-10-28T00:32:11.715Z,9.65
2022-10-28T00:35:17.163Z,9.66
2022-10-28T00:38:22.486Z,9.68
2022-10-28T00:41:29.008Z,9.69
2022-10-28T00:44:51.292Z,9.68
2022-10-28T00:47:58.414Z,9.66
2022-10-28T00:51:06.721Z,9.65
2022-10-28T00:54:13.155Z,9.65
2022-10-28T00:57:24.254Z,9.63
2022-10-28T01:00:31.916Z,9.59
2022-10-28T01:03:37.126Z,9.57
2022-10-28T01:06:44.117Z,9.56
2022-10-28T01:09:49.285Z,9.55
2022-10-28T01:13:00.866Z,9.57
2022-10-28T01:16:11.619Z,9.57
2022-10-28T01:19:33.233Z,9.58
2022-10-28T01:22:43.584Z,9.58
2022-10-28T01:26:00.399Z,9.58
2022-10-28T01:29:31.413Z,9.60
2022-10-28T01:32:42.408Z,9.61
2022-10-28T01:35:52.420Z,9.62
2022-10-28T01:39:02.228Z,9.63
2022-10-28T01:42:15.226Z,9.63
2022-10-28T01:45:24.146Z,9.63
2022-10-28T01:48:32.887Z,9.61
2022-10-28T01:51:39.839Z,9.59
2022-10-28T01:54:48.377Z,9.58
2022-10-28T01:57:55.864Z,9.58
2022-10-28T02:01:06.130Z,9.58
2022-10-28T02:04:12.065Z,9.58
2022-10-28T02:07:17.812Z,9.59
2022-10-28T02:10:27.882Z,9.59
2022-10-28T02:13:39.098Z,9.60
2022-10-28T02:16:49.162Z,9.61
2022-10-28T02:19:59.798Z,9.62
2022-10-28T02:23:11.246Z,9.65
2022-10-28T02:26:21.886Z,9.68
2022-10-28T02:29:31.860Z,9.71
2022-10-28T02:32:39.557Z,9.74
2022-10-28T02:35:47.507Z,9.77
2022-10-28T02:38:54.960Z,9.80
2022-10-28T02:42:02.679Z,9.82
2022-10-28T02:45:13.750Z,9.83
2022-10-28T02:48:20.493Z,9.85
2022-10-28T02:51:28.631Z,9.87
2022-10-28T02:54:35.867Z,9.87
2022-10-28T02:57:42.858Z,9.88
2022-10-28T03:00:49.964Z,9.89
2022-10-28T03:03:55.107Z,9.90
2022-10-28T03:07:00.445Z,9.92
2022-10-28T03:10:08.337Z,9.93
2022-10-28T03:13:13.561Z,9.92
2022-10-28T03:16:23.094Z,9.93
2022-10-28T03:19:28.307Z,9.94
2022-10-28T03:22:33.598Z,9.91
2022-10-28T03:25:38.879Z,9.90
2022-10-28T03:28:44.691Z,9.88
2022-10-28T03:31:52.967Z,9.85
2022-10-28T03:34:58.150Z,9.84
2022-10-28T03:38:03.157Z,9.82
2022-10-28T03:41:08.409Z,9.79
2022-10-28T03:44:16.715Z,9.77
2022-10-28T03:47:21.914Z,9.78
2022-10-28T03:50:26.820Z,9.77
2022-10-28T03:53:32.072Z,9.77
2022-10-28T03:56:39.530Z,9.77
2022-10-28T03:59:44.817Z,9.77
2022-10-28T04:02:52.839Z,9.79
2022-10-28T04:05:58.562Z,9.80
2022-10-28T04:09:04.042Z,9.83
2022-10-28T04:12:11.151Z,9.84
2022-10-28T04:15:16.611Z,9.86
2022-10-28T04:18:24.497Z,9.88
2022-10-28T04:21:30.253Z,9.88
2022-10-28T04:24:35.792Z,9.89
2022-10-28T04:27:41.285Z,9.89
2022-10-28T04:30:47.251Z,9.89
2022-10-28T04:33:52.487Z,9.89
2022-10-28T04:36:57.711Z,9.89
2022-10-28T04:40:03.020Z,9.89
2022-10-28T04:43:09.980Z,9.90
2022-10-28T04:46:15.722Z,9.91
2022-10-28T04:49:22.055Z,9.93
2022-10-28T04:52:30.270Z,9.97
2022-10-28T04:55:35.588Z,9.98
2022-10-28T04:58:41.351Z,9.98
2022-10-28T05:01:46.822Z,9.99
2022-10-28T05:04:52.089Z,10.00
2022-10-28T05:07:57.525Z,9.98
2022-10-28T05:11:02.855Z,9.97
2022-10-28T05:14:09.523Z,9.95
2022-10-28T05:17:14.817Z,9.90
2022-10-28T05:20:21.112Z,9.86
2022-10-28T05:23:30.835Z,9.81
2022-10-28T05:26:36.251Z,9.76
2022-10-28T05:29:41.618Z,9.71
2022-10-28T05:32:49.232Z,9.68
2022-10-28T05:35:57.084Z,9.66
2022-10-28T05:39:02.484Z,9.63
2022-10-28T05:42:07.737Z,9.62
2022-10-28T05:45:13.527Z,9.61
2022-10-28T05:48:18.826Z,9.60
2022-10-28T05:51:24.350Z,9.62
2022-10-28T05:54:29.540Z,9.64
2022-10-28T05:57:36.495Z,9.66
2022-10-28T06:00:41.930Z,9.69
2022-10-28T06:03:47.324Z,9.72
2022-10-28T06:06:55.308Z,9.74
2022-10-28T06:10:00.552Z,9.79
2022-10-28T06:13:04.577Z,9.82
2022-10-28T06:16:09.880Z,9.85
2022-10-28T06:19:15.093Z,9.88
2022-10-28T06:22:20.430Z,9.91
2022-10-28T06:25:26.391Z,9.94
2022-10-28T06:28:31.779Z,9.99
2022-10-28T06:31:39.637Z,10.05
2022-10-28T06:34:44.942Z,10.13
2022-10-28T06:37:55.350Z,10.21
2022-10-28T06:41:00.957Z,10.30
2022-10-28T06:44:06.458Z,10.36
2022-10-28T06:47:13.325Z,10.42
2022-10-28T06:50:18.689Z,10.47
2022-10-28T06:53:24.238Z,10.56
2022-10-28T06:56:29.468Z,10.67
2022-10-28T06:59:34.872Z,10.77
2022-10-28T07:02:42.839Z,10.87
2022-10-28T07:05:51.740Z,10.97
2022-10-28T07:08:57.072Z,11.06
2022-10-28T07:12:05.102Z,11.13
2022-10-28T07:15:12.442Z,11.22
2022-10-28T07:18:17.624Z,11.33
2022-10-28T07:21:28.527Z,11.43
2022-10-28T07:24:34.096Z,11.53
2022-10-28T07:27:39.279Z,11.63
2022-10-28T07:30:44.577Z,11.72
2022-10-28T07:33:53.801Z,11.83
2022-10-28T07:36:59.320Z,11.94
2022-10-28T07:40:04.938Z,12.05
2022-10-28T07:43:10.280Z,12.14
2022-10-28T07:46:16.167Z,12.25
2022-10-28T07:49:21.441Z,12.34
2022-10-28T07:52:26.654Z,12.43
2022-10-28T07:55:31.991Z,12.53
2022-10-28T07:58:37.849Z,12.61
2022-10-28T08:01:43.355Z,12.70
2022-10-28T08:04:51.028Z,12.78
2022-10-28T08:07:56.703Z,12.87
2022-10-28T08:11:09.240Z,12.97
2022-10-28T08:14:14.503Z,13.06
2022-10-28T08:17:22.646Z,13.14
2022-10-28T08:20:27.894Z,13.23
2022-10-28T08:23:33.532Z,13.32
2022-10-28T08:26:38.800Z,13.40
2022-10-28T08:29:43.915Z,13.51
2022-10-28T08:32:49.223Z,13.62
2022-10-28T08:35:54.638Z,13.71
2022-10-28T08:39:01.742Z,13.82
2022-10-28T08:42:18.544Z,13.93
2022-10-28T08:45:27.092Z,14.05
2022-10-28T08:48:34.802Z,14.15
2022-10-28T08:51:43.259Z,14.26
2022-10-28T08:54:52.350Z,14.36
2022-10-28T08:57:59.240Z,14.47
2022-10-28T09:01:06.371Z,14.58
2022-10-28T09:04:21.318Z,14.69
2022-10-28T09:07:26.866Z,14.80
2022-10-28T09:10:42.493Z,14.93
2022-10-28T09:13:55.606Z,15.07
2022-10-28T09:17:07.996Z,15.19
2022-10-28T09:20:18.471Z,15.31
2022-10-28T09:23:45.462Z,15.44
2022-10-28T09:26:53.879Z,15.56
2022-10-28T09:30:06.111Z,15.68
2022-10-28T09:33:17.938Z,15.80
2022-10-28T09:36:26.114Z,15.94
2022-10-28T09:39:33.380Z,16.06
2022-10-28T09:42:41.752Z,16.18
2022-10-28T09:45:49.256Z,16.31
2022-10-28T09:48:56.816Z,16.45
2022-10-28T09:52:05.607Z,16.60
2022-10-28T09:55:20.201Z,16.73
2022-10-28T09:58:25.681Z,16.89
2022-10-28T10:01:48.899Z,17.01
2022-10-28T10:04:54.455Z,17.13
2022-10-28T10:08:18.939Z,17.19
2022-10-28T10:11:28.767Z,17.29
2022-10-28T10:14:38.018Z,17.38
2022-10-28T10:18:02.295Z,17.50
2022-10-28T10:21:07.785Z,17.66
2022-10-28T10:24:30.764Z,17.78
2022-10-28T10:27:36.021Z,17.85
2022-10-28T10:30:46.694Z,17.91
2022-10-28T10:34:19.653Z,18.00
2022-10-28T10:37:25.055Z,18.03
2022-10-28T10:40:32.183Z,18.08
2022-10-28T10:43:37.858Z,18.12
2022-10-28T10:46:44.442Z,18.16
2022-10-28T10:49:55.151Z,18.19
2022-10-28T10:53:01.563Z,18.21
2022-10-28T10:56:26.569Z,18.25
2022-10-28T10:59:50.648Z,18.27
2022-10-28T11:02:56.250Z,18.28
2022-10-28T11:09:48.461Z,18.23
2022-10-28T11:12:55.420Z,18.22
2022-10-28T11:16:20.608Z,18.36
2022-10-28T11:19:29.688Z,18.63
2022-10-28T11:22:44.240Z,19.00
2022-10-28T11:25:51.071Z,19.34
2022-10-28T11:29:07.603Z,19.61
2022-10-28T11:33:01.400Z,19.94
2022-10-28T11:36:16.899Z,20.22
2022-10-28T11:39:26.463Z,20.47
2022-10-28T11:42:52.730Z,20.78
2022-10-28T11:46:04.752Z,21.07
2022-10-28T11:49:23.020Z,21.44
2022-10-28T11:52:35.271Z,21.74
2022-10-28T11:56:04.587Z,21.97
2022-10-28T11:59:45.387Z,22.00
2022-10-28T12:02:57.949Z,21.90
2022-10-28T12:06:11.299Z,21.74
2022-10-28T12:09:24.816Z,21.56
2022-10-28T12:12:33.105Z,21.40
2022-10-28T12:15:44.932Z,21.35
2022-10-28T12:18:53.999Z,21.36
2022-10-28T12:22:23.473Z,21.37
2022-10-28T12:25:30.033Z,21.35
2022-10-28T12:28:42.190Z,21.27
2022-10-28T12:32:06.756Z,21.32
2022-10-28T12:35:17.292Z,21.38
2022-10-28T12:38:26.662Z,21.49
2022-10-28T12:41:44.038Z,21.68
2022-10-28T12:44:52.948Z,21.91
2022-10-28T12:48:01.968Z,21.98
2022-10-28T12:51:13.609Z,21.86
2022-10-28T12:54:23.012Z,21.68
2022-10-28T12:57:30.483Z,21.61
2022-10-28T13:00:55.589Z,21.54
2022-10-28T13:04:19.487Z,21.47
2022-10-28T13:07:33.405Z,21.43
2022-10-28T13:10:42.309Z,21.32
2022-10-28T13:13:52.969Z,21.16
2022-10-28T13:17:15.816Z,20.94
2022-10-28T13:20:25.898Z,20.69
2022-10-28T13:23:36.385Z,20.50
2022-10-28T13:26:43.557Z,20.39
2022-10-28T13:29:52.553Z,20.40
2022-10-28T13:33:04.609Z,20.47
2022-10-28T13:36:11.759Z,20.57
2022-10-28T13:39:25.849Z,20.67
2022-10-28T13:42:54.023Z,20.80
2022-10-28T13:49:24.376Z,21.02
2022-10-28T13:52:48.023Z,20.95
2022-10-28T13:55:57.713Z,20.85
2022-10-28T13:59:05.296Z,20.78
2022-10-28T14:02:35.679Z,20.80
2022-10-28T14:05:55.771Z,20.84
2022-10-28T14:09:01.361Z,20.82
2022-10-28T14:12:26.886Z,20.76
2022-10-28T14:15:32.968Z,20.64
2022-10-28T14:18:43.838Z,20.50
2022-10-28T14:21:56.381Z,20.35
2022-10-28T14:25:24.698Z,20.23
2022-10-28T14:28:57.362Z,20.07
2022-10-28T14:32:22.734Z,19.92
2022-10-28T14:35:30.839Z,19.77
2022-10-28T14:38:50.876Z,19.62
2022-10-28T14:42:06.760Z,19.47
2022-10-28T14:45:21.705Z,19.33
2022-10-28T14:48:46.214Z,19.20
2022-10-28T14:51:52.484Z,19.13
2022-10-28T14:54:59.411Z,19.10
2022-10-28T14:58:21.108Z,19.07
2022-10-28T15:01:56.073Z,19.02
2022-10-28T15:05:03.194Z,18.98
2022-10-28T15:08:11.524Z,18.94
2022-10-28T15:11:35.034Z,18.88
2022-10-28T15:14:42.638Z,18.78
2022-10-28T15:17:48.080Z,18.68
2022-10-28T15:21:11.411Z,18.55
2022-10-28T15:24:16.831Z,18.40
2022-10-28T15:27:23.055Z,18.24
2022-10-28T15:30:28.523Z,18.09
2022-10-28T15:33:38.212Z,17.93
2022-10-28T15:37:01.129Z,17.77
2022-10-28T15:40:21.364Z,17.64
2022-10-28T15:43:30.035Z,17.55
2022-10-28T15:46:35.843Z,17.51
2022-10-28T15:49:41.734Z,17.47
2022-10-28T15:53:23.469Z,17.41
2022-10-28T15:56:28.978Z,17.34
2022-10-28T15:59:36.671Z,17.26
2022-10-28T16:02:43.093Z,17.16
2022-10-28T16:05:49.275Z,17.04
2022-10-28T16:09:19.266Z,16.90
2022-10-28T16:12:26.544Z,16.76
2022-10-28T16:15:52.417Z,16.61
2022-10-28T16:19:03.352Z,16.46
2022-10-28T16:22:27.394Z,16.31
2022-10-28T16:25:50.572Z,16.17
2022-10-28T16:29:13.369Z,16.06
2022-10-28T16:32:20.868Z,15.98
2022-10-28T16:35:26.684Z,15.92
2022-10-28T16:38:32.499Z,15.86
2022-10-28T16:41:56.096Z,15.77
2022-10-28T16:45:01.442Z,15.73
2022-10-28T16:48:25.436Z,15.67
2022-10-28T16:51:30.754Z,15.63
2022-10-28T16:54:36.134Z,15.58
2022-10-28T16:57:41.588Z,15.54
2022-10-28T17:01:05.144Z,15.52
2022-10-28T17:04:10.883Z,15.49
2022-10-28T17:07:17.872Z,15.46
2022-10-28T17:10:43.354Z,15.42
2022-10-28T17:13:49.072Z,15.38
2022-10-28T17:16:54.492Z,15.35
2022-10-28T17:19:59.993Z,15.33
2022-10-28T17:23:23.190Z,15.31
2022-10-28T17:26:28.628Z,15.28
2022-10-28T17:29:37.014Z,15.26
2022-10-28T17:32:43.899Z,15.24
2022-10-28T17:35:49.454Z,15.23
2022-10-28T17:39:17.738Z,15.22
2022-10-28T17:42:25.999Z,15.20
2022-10-28T17:45:31.239Z,15.18
2022-10-28T17:48:54.130Z,15.15
2022-10-28T17:51:59.799Z,15.12
2022-10-28T17:55:11.767Z,15.10
2022-10-28T17:58:17.016Z,15.08
2022-10-28T18:01:22.538Z,15.07
2022-10-28T18:04:28.193Z,15.05
2022-10-28T18:07:34.928Z,15.02
2022-10-28T18:10:40.292Z,15.01
2022-10-28T18:13:47.719Z,14.99
2022-10-28T18:16:52.979Z,14.97
2022-10-28T18:20:01.555Z,14.92
2022-10-28T18:23:06.841Z,14.87
2022-10-28T18:26:13.425Z,14.82
2022-10-28T18:29:18.875Z,14.78
2022-10-28T18:32:41.767Z,14.74
2022-10-28T18:35:48.136Z,14.69
2022-10-28T18:38:53.312Z,14.64
2022-10-28T18:42:19.379Z,14.56
2022-10-28T18:45:27.172Z,14.48
2022-10-28T18:48:32.719Z,14.41
2022-10-28T18:51:38.268Z,14.36
2022-10-28T18:54:46.591Z,14.31
2022-10-28T18:57:52.442Z,14.28
2022-10-28T19:01:15.981Z,14.26
2022-10-28T19:04:21.484Z,14.27
2022-10-28T19:07:26.716Z,14.29
2022-10-28T19:10:32.051Z,14.32
2022-10-28T19:13:38.413Z,14.37
2022-10-28T19:17:01.701Z,14.41
2022-10-28T19:20:07.790Z,14.46
2022-10-28T19:23:12.957Z,14.51
2022-10-28T19:26:18.857Z,14.54
2022-10-28T19:29:24.724Z,14.56
2022-10-28T19:32:30.051Z,14.58
2022-10-28T19:35:35.824Z,14.60
2022-10-28T19:38:41.075Z,14.62
2022-10-28T19:41:47.056Z,14.63
2022-10-28T19:44:52.280Z,14.64
2022-10-28T19:48:01.257Z,14.64
2022-10-28T19:51:24.827Z,14.61
2022-10-28T19:54:30.081Z,14.57
2022-10-28T19:57:35.368Z,14.52
2022-10-28T20:00:59.020Z,14.46
2022-10-28T20:04:04.521Z,14.41
2022-10-28T20:07:27.604Z,14.37
2022-10-28T20:10:33.047Z,14.35
2022-10-28T20:13:39.204Z,14.32
2022-10-28T20:17:06.400Z,14.31
2022-10-28T20:20:13.988Z,14.28
2022-10-28T20:23:19.241Z,14.24
2022-10-28T20:26:42.064Z,14.18
2022-10-28T20:29:47.316Z,14.13
2022-10-28T20:32:55.785Z,14.09
2022-10-28T20:36:01.420Z,14.03
2022-10-28T20:39:25.385Z,13.97
2022-10-28T20:42:30.812Z,13.91
2022-10-28T20:45:36.016Z,13.86
2022-10-28T20:48:41.363Z,13.79
2022-10-28T20:51:46.658Z,13.73
2022-10-28T20:55:10.377Z,13.67
2022-10-28T20:58:15.766Z,13.61
2022-10-28T21:01:21.992Z,13.56
2022-10-28T21:04:27.664Z,13.53
2022-10-28T21:07:50.470Z,13.49
2022-10-28T21:11:18.127Z,13.43
2022-10-28T21:14:23.479Z,13.36
2022-10-28T21:17:28.849Z,13.29
2022-10-28T21:20:35.782Z,13.21
2022-10-28T21:23:40.992Z,13.12
2022-10-28T21:26:48.434Z,13.05
2022-10-28T21:29:57.982Z,12.98
2022-10-28T21:33:20.936Z,12.93
2022-10-28T21:36:27.366Z,12.89
2022-10-28T21:39:32.687Z,12.85
2022-10-28T21:42:37.950Z,12.80
2022-10-28T21:45:43.179Z,12.76
2022-10-28T21:48:48.494Z,12.73
2022-10-28T21:52:12.899Z,12.70
2022-10-28T21:55:26.862Z,12.67
2022-10-28T21:58:39.254Z,12.65
2022-10-28T22:01:44.722Z,12.63
2022-10-28T22:05:08.119Z,12.59
2022-10-28T22:08:13.245Z,12.57
2022-10-28T22:11:19.874Z,12.53
2022-10-28T22:14:25.195Z,12.47
2022-10-28T22:17:30.644Z,12.43
2022-10-28T22:20:36.166Z,12.38
2022-10-28T22:23:41.632Z,12.35
2022-10-28T22:26:46.943Z,12.32
2022-10-28T22:29:52.735Z,12.32
2022-10-28T22:32:58.117Z,12.33
2022-10-28T22:36:05.594Z,12.32
2022-10-28T22:39:11.048Z,12.30
2022-10-28T22:42:16.407Z,12.27
2022-10-28T22:45:21.652Z,12.24
2022-10-28T22:48:27.472Z,12.21
2022-10-28T22:51:32.886Z,12.17
2022-10-28T22:54:38.074Z,12.14
2022-10-28T22:57:43.449Z,12.11
2022-10-28T23:00:49.148Z,12.09
2022-10-28T23:03:57.631Z,12.06
2022-10-28T23:07:02.830Z,12.02
2022-10-28T23:10:08.887Z,11.98
2022-10-28T23:13:21.473Z,11.93
2022-10-28T23:16:26.814Z,11.85
2022-10-28T23:19:32.113Z,11.82
2022-10-28T23:22:57.445Z,11.76
2022-10-28T23:26:03.111Z,11.74
2022-10-28T23:29:26.189Z,11.70
2022-10-28T23:32:32.161Z,11.70
2022-10-28T23:35:58.885Z,11.69
2022-10-28T23:39:04.133Z,11.69
2022-10-28T23:42:10.641Z,11.72
2022-10-28T23:45:33.360Z,11.75
2022-10-28T23:48:56.229Z,11.78
2022-10-28T23:52:01.472Z,11.79
2022-10-28T23:55:07.381Z,11.78
2022-10-28T23:58:12.715Z,11.74
